Star Markella — V7KL3 — position and weather

sailwx.info

Track history (hours):
 
Tides and Currents Weather Stations Pressure Air Temp Water Temp Dewpoint Dewpoint Depression Visibility Wind Speed Wind Dir Waves Ship Positions

Star Markella

Last reported at 2016-Jan-15 18:19 UTC. Time now 2016-Feb-14 08:05 UTC.
Position N 35°57' W 005°36'.
Warning: this ship's position is 29 days out of date.

Length 229 m; draft 6.9 m.

Type: Cargo ship. MMSI: 538002640.

Date/timePositionNaut miles runAvg speedWind from/ knotsBaromVisibWave heightAir tempDewpointWater temp
2016-Jan-15 18:19N 35°57' W 005°36'7 9.5
2016-Jan-15 17:33N 35°60' W 005°28'8 8.4
2016-Jan-15 16:33N 36°03' W 005°18'7 0.4
2016-Jan-14 20:33N 36°08' W 005°13'9 9.2
2016-Jan-14 19:33N 36°08' W 005°24'1 0.1
2016-Jan-14 04:33N 36°07' W 005°25'  
2016-Jan-11 04:28N 36°07' W 005°25'0 0.0
2016-Jan-11 03:31N 36°07' W 005°25'0 0.0
2016-Jan-11 01:22N 36°07' W 005°25'0 0.0
2016-Jan-11 00:25N 36°07' W 005°25'0 0.0
2016-Jan-10 23:28N 36°07' W 005°25'0 0.0
2016-Jan-10 17:19N 36°07' W 005°25'0 0.0
2016-Jan-10 15:28N 36°07' W 005°25'0 0.0
2016-Jan-10 14:28N 36°07' W 005°25'0 0.0
2016-Jan-10 09:28N 36°07' W 005°25'0 0.0
2016-Jan-10 04:28N 36°07' W 005°25'0 0.0
2016-Jan-10 03:28N 36°07' W 005°25'0 0.0
2016-Jan-10 02:16N 36°07' W 005°25'0 0.0
2016-Jan-10 01:28N 36°07' W 005°25'0 0.0
2016-Jan-09 23:04N 36°07' W 005°25'0 0.0
2016-Jan-09 22:22N 36°07' W 005°25'0 0.0
2016-Jan-09 17:28N 36°07' W 005°25'0 0.0
2016-Jan-09 16:28N 36°07' W 005°25'0 0.0
2016-Jan-09 13:22N 36°07' W 005°25'  
Track history (hours):
 
Tides and Currents Weather Stations Pressure Air Temp Water Temp Dewpoint Dewpoint Depression Visibility Wind Speed Wind Dir Waves Ship Positions

Star Markella

Last reported at 2016-Jan-15 18:19 UTC. Time now 2016-Feb-14 08:05 UTC.
Position N 35°57' W 005°36'.
Warning: this ship's position is 29 days out of date.

Length 229 m; draft 6.9 m.

Type: Cargo ship. MMSI: 538002640.

Date/timePositionNaut miles runAvg speedWind from/ knotsBaromVisibWave heightAir tempDewpointWater temp
2016-Jan-15 18:19N 35°57' W 005°36'7 9.5
2016-Jan-15 17:33N 35°60' W 005°28'8 8.4
2016-Jan-15 16:33N 36°03' W 005°18'7 0.4
2016-Jan-14 20:33N 36°08' W 005°13'9 9.2
2016-Jan-14 19:33N 36°08' W 005°24'1 0.1
2016-Jan-14 04:33N 36°07' W 005°25'  
2016-Jan-11 04:28N 36°07' W 005°25'0 0.0
2016-Jan-11 03:31N 36°07' W 005°25'0 0.0
2016-Jan-11 01:22N 36°07' W 005°25'0 0.0
2016-Jan-11 00:25N 36°07' W 005°25'0 0.0
2016-Jan-10 23:28N 36°07' W 005°25'0 0.0
2016-Jan-10 17:19N 36°07' W 005°25'0 0.0
2016-Jan-10 15:28N 36°07' W 005°25'0 0.0
2016-Jan-10 14:28N 36°07' W 005°25'0 0.0
2016-Jan-10 09:28N 36°07' W 005°25'0 0.0
2016-Jan-10 04:28N 36°07' W 005°25'0 0.0
2016-Jan-10 03:28N 36°07' W 005°25'0 0.0
2016-Jan-10 02:16N 36°07' W 005°25'0 0.0
2016-Jan-10 01:28N 36°07' W 005°25'0 0.0
2016-Jan-09 23:04N 36°07' W 005°25'0 0.0
2016-Jan-09 22:22N 36°07' W 005°25'0 0.0
2016-Jan-09 17:28N 36°07' W 005°25'0 0.0
2016-Jan-09 16:28N 36°07' W 005°25'0 0.0
2016-Jan-09 13:22N 36°07' W 005°25'  

Dump ship's entire track history